CheckWX is a tool to help pilots better visualize weather data.  It is not intended as a substitute for an official pre-flight weather briefing.

00:52:16 UTC

EGVO METAR
RAF Odiham Airport
Odiham, United Kingdom
Current

1 hour ago

EGVO 052350Z AUTO 22016KT 4500 BR OVC005/// 09/09 Q1012
Observed
Dec-5 @ 23:50 UTC
Wind
  • 220° at 16 KTS
Visibility
4,500 meters
Flight Rules
IFR
Conditions
Mist
Cloud Levels
  • Overcast at 500' AGL
Temperature
C / 48°F
Dewpoint
C / 48°F
Humidity
100%
Altimeter
29.88" Hg
Pressure
1011.92 hPa
Previous

2 hours ago

EGVO 052250Z 21017KT 9999 -RA OVC007 09/08 Q1012 TEMPO 4000 -RADZ BKN006 RMK GRN TEMPO YLO1
Observed
Dec-5 @ 22:50 UTC
Wind
  • 210° at 17 KTS
Visibility
10,000+ meters
Flight Rules
IFR
Conditions
Light Rain
Cloud Levels
  • Overcast at 700' AGL
Temperature
C / 48°F
Dewpoint
C / 46°F
Humidity
94%
Altimeter
29.88" Hg
Pressure
1011.92 hPa
Previous

3 hours ago

EGVO 052220Z 21018KT 9999 -RA BKN010 SCT016 09/08 Q1013 TEMPO 4000 -RADZ GRN TEMPO GRN
Observed
Dec-5 @ 22:20 UTC
Wind
  • 210° at 18 KTS
Visibility
10,000+ meters
Flight Rules
MVFR
Conditions
Light Rain
Cloud Levels
  • Broken at 1,000' AGL
  • Scattered at 1,600' AGL
Temperature
C / 48°F
Dewpoint
C / 46°F
Humidity
94%
Altimeter
29.91" Hg
Pressure
1012.92 hPa